createdAt,value
2023-03-04T04:00:18.368Z,85.40
2023-03-04T04:02:46.411Z,85.40
2023-03-04T04:05:15.363Z,85.60
2023-03-04T04:07:43.411Z,85.90
2023-03-04T04:10:12.476Z,86.10
2023-03-04T04:12:40.522Z,86.20
2023-03-04T04:15:11.565Z,87.20
2023-03-04T04:17:41.075Z,88.10
2023-03-04T04:20:10.470Z,88.00
2023-03-04T04:22:38.312Z,87.90
2023-03-04T04:25:08.762Z,87.80
2023-03-04T04:27:36.661Z,87.30
2023-03-04T04:30:05.828Z,87.30
2023-03-04T04:32:33.949Z,87.70
2023-03-04T04:35:03.186Z,88.10
2023-03-04T04:37:31.203Z,88.00
2023-03-04T04:39:59.002Z,87.70
2023-03-04T04:42:28.468Z,87.80
2023-03-04T04:44:57.257Z,87.70
2023-03-04T04:47:25.184Z,87.60
2023-03-04T04:49:53.045Z,87.40
2023-03-04T04:52:22.220Z,87.20
2023-03-04T04:54:50.056Z,87.50
2023-03-04T04:57:17.882Z,87.50
2023-03-04T04:59:45.735Z,86.90
2023-03-04T05:02:13.687Z,87.20
2023-03-04T05:04:41.529Z,86.10
2023-03-04T05:07:09.424Z,86.30
2023-03-04T05:09:38.602Z,85.90
2023-03-04T05:12:06.637Z,85.90
2023-03-04T05:14:34.524Z,86.30
2023-03-04T05:17:03.409Z,86.60
2023-03-04T05:19:31.235Z,86.40
2023-03-04T05:21:59.045Z,86.20
2023-03-04T05:24:26.920Z,86.00
2023-03-04T05:26:58.157Z,86.10
2023-03-04T05:29:25.998Z,86.20
2023-03-04T05:31:54.043Z,85.70
2023-03-04T05:34:21.874Z,85.40
2023-03-04T05:36:49.740Z,85.00
2023-03-04T05:39:17.777Z,84.60
2023-03-04T05:41:45.596Z,84.50
2023-03-04T05:44:14.769Z,84.30
2023-03-04T05:46:42.630Z,83.80
2023-03-04T05:49:10.635Z,83.40
2023-03-04T05:51:38.461Z,83.00
2023-03-04T05:54:06.296Z,82.50
2023-03-04T05:56:34.137Z,83.00
2023-03-04T05:59:01.975Z,82.70
2023-03-04T06:01:31.308Z,82.60
2023-03-04T06:03:59.233Z,82.70
2023-03-04T06:06:27.098Z,82.50
2023-03-04T06:08:55.095Z,82.60
2023-03-04T06:11:22.906Z,82.40
2023-03-04T06:13:50.788Z,82.20
2023-03-04T06:16:18.643Z,82.40
2023-03-04T06:18:48.992Z,82.20
2023-03-04T06:21:16.829Z,81.90
2023-03-04T06:23:45.154Z,81.60
2023-03-04T06:26:15.408Z,81.30
2023-03-04T06:28:43.461Z,81.30
2023-03-04T06:31:11.470Z,81.10
2023-03-04T06:33:39.480Z,81.00
2023-03-04T06:36:09.401Z,80.80
2023-03-04T06:38:37.337Z,81.10
2023-03-04T06:41:09.306Z,81.20
2023-03-04T06:43:37.743Z,80.60
2023-03-04T06:46:05.994Z,80.50
2023-03-04T06:48:33.868Z,80.80
2023-03-04T06:51:08.298Z,80.80
2023-03-04T06:53:37.471Z,81.00
2023-03-04T06:56:06.113Z,80.80
2023-03-04T06:58:34.281Z,80.90
2023-03-04T07:01:14.372Z,80.80
2023-03-04T07:03:42.587Z,80.80
2023-03-04T07:06:13.620Z,80.50
2023-03-04T07:08:41.538Z,80.70
2023-03-04T07:11:09.573Z,80.90
2023-03-04T07:13:38.422Z,80.40
2023-03-04T07:16:07.434Z,80.60
2023-03-04T07:18:35.314Z,80.70
2023-03-04T07:21:03.386Z,80.30
2023-03-04T07:23:32.737Z,80.30
2023-03-04T07:26:00.617Z,80.10
2023-03-04T07:28:28.697Z,80.30
2023-03-04T07:30:56.542Z,81.20
2023-03-04T07:33:24.364Z,81.20
2023-03-04T07:35:59.985Z,80.90
2023-03-04T07:38:27.854Z,81.10
2023-03-04T07:40:58.728Z,81.10
2023-03-04T07:43:26.963Z,80.90
2023-03-04T07:46:00.154Z,80.90
2023-03-04T07:48:28.163Z,80.80
2023-03-04T07:51:08.314Z,80.60
2023-03-04T07:53:37.217Z,80.20
2023-03-04T07:56:08.192Z,80.10
2023-03-04T07:58:36.072Z,79.90
2023-03-04T08:01:10.554Z,79.80
2023-03-04T08:03:38.562Z,79.60
2023-03-04T08:06:07.628Z,79.60
2023-03-04T08:08:35.725Z,79.50
2023-03-04T08:11:06.840Z,79.60
2023-03-04T08:13:35.525Z,80.00
2023-03-04T08:16:03.569Z,80.00
2023-03-04T08:18:31.488Z,79.90
2023-03-04T08:20:59.328Z,79.90
2023-03-04T08:23:27.238Z,80.10
2023-03-04T08:25:55.435Z,79.90
2023-03-04T08:28:27.825Z,79.30
2023-03-04T08:30:56.689Z,79.00
2023-03-04T08:33:25.759Z,79.20
2023-03-04T08:35:54.321Z,79.40
2023-03-04T08:38:22.159Z,79.40
2023-03-04T08:40:54.155Z,80.00
2023-03-04T08:43:21.998Z,79.30
2023-03-04T08:45:51.898Z,79.20
2023-03-04T08:48:20.106Z,79.90
2023-03-04T08:50:48.824Z,79.80
2023-03-04T08:53:17.557Z,79.80
2023-03-04T08:55:45.910Z,79.50
2023-03-04T08:58:14.443Z,79.30
2023-03-04T09:00:44.707Z,78.80
2023-03-04T09:03:14.130Z,78.50
2023-03-04T09:05:42.228Z,78.90
2023-03-04T09:08:10.061Z,79.00
2023-03-04T09:10:41.207Z,79.20
2023-03-04T09:13:11.285Z,78.90
2023-03-04T09:15:44.507Z,79.20
2023-03-04T09:18:14.130Z,79.20
2023-03-04T09:20:42.183Z,79.00
2023-03-04T09:23:10.425Z,78.60
2023-03-04T09:25:38.802Z,78.50
2023-03-04T09:28:07.722Z,78.50
2023-03-04T09:30:36.115Z,78.80
2023-03-04T09:33:04.135Z,78.50
2023-03-04T09:35:33.426Z,78.80
2023-03-04T09:38:01.430Z,78.30
2023-03-04T09:40:33.310Z,78.40
2023-03-04T09:43:05.185Z,78.20
2023-03-04T09:45:39.034Z,77.20
2023-03-04T09:48:07.996Z,78.10
2023-03-04T09:50:43.215Z,78.30
2023-03-04T09:53:21.901Z,78.40
2023-03-04T09:55:52.208Z,77.40
2023-03-04T09:58:33.697Z,77.60
2023-03-04T10:01:08.479Z,77.80
2023-03-04T10:03:44.636Z,77.70
2023-03-04T10:06:17.773Z,78.00
2023-03-04T10:08:51.029Z,77.90
2023-03-04T10:11:24.771Z,77.70
2023-03-04T10:14:04.617Z,77.90
2023-03-04T10:16:39.035Z,77.90
2023-03-04T10:19:30.912Z,78.20
2023-03-04T10:22:00.471Z,78.10
2023-03-04T10:24:30.318Z,78.00
2023-03-04T10:27:05.196Z,77.90
2023-03-04T10:29:34.514Z,77.90
2023-03-04T10:32:02.497Z,77.50
2023-03-04T10:34:30.490Z,77.80
2023-03-04T10:37:02.675Z,77.40
2023-03-04T10:39:33.652Z,77.40
2023-03-04T10:42:03.524Z,77.50
2023-03-04T10:44:33.752Z,77.20
2023-03-04T10:47:02.187Z,77.40
2023-03-04T10:49:30.740Z,77.90
2023-03-04T10:52:15.888Z,77.40
2023-03-04T10:54:49.735Z,77.40
2023-03-04T10:57:19.948Z,77.40
2023-03-04T10:59:50.530Z,77.90
2023-03-04T11:02:23.019Z,77.70
2023-03-04T11:04:53.550Z,77.90
2023-03-04T11:07:24.305Z,77.90
2023-03-04T11:09:52.562Z,77.60
2023-03-04T11:12:22.717Z,77.60
2023-03-04T11:14:53.069Z,77.70
2023-03-04T11:17:25.043Z,78.20
2023-03-04T11:19:58.234Z,78.30
2023-03-04T11:22:30.123Z,78.40
2023-03-04T11:25:01.284Z,78.70
2023-03-04T11:27:41.120Z,79.20
2023-03-04T11:30:26.553Z,79.20
2023-03-04T11:32:57.714Z,77.90
2023-03-04T11:35:29.818Z,77.90
2023-03-04T11:38:05.158Z,77.90
2023-03-04T11:40:40.059Z,77.60
2023-03-04T11:43:15.001Z,77.40
2023-03-04T11:45:59.439Z,77.90
2023-03-04T11:48:40.992Z,77.80
2023-03-04T11:51:14.596Z,78.00
2023-03-04T11:53:54.401Z,78.40
2023-03-04T11:56:33.590Z,78.80
2023-03-04T11:59:35.849Z,78.50
2023-03-04T12:02:14.242Z,78.60
2023-03-04T12:05:02.628Z,77.70
2023-03-04T12:07:47.339Z,77.60
2023-03-04T12:10:26.751Z,78.40
2023-03-04T12:13:11.464Z,78.60
2023-03-04T12:15:48.450Z,78.30
2023-03-04T12:18:35.130Z,77.80
2023-03-04T12:21:29.773Z,78.20
2023-03-04T12:24:15.977Z,77.70
2023-03-04T12:26:52.963Z,77.70
2023-03-04T12:29:30.512Z,77.40
2023-03-04T12:32:04.665Z,77.50
2023-03-04T12:34:39.077Z,77.10
2023-03-04T12:37:28.541Z,77.20
2023-03-04T12:40:20.911Z,77.00
2023-03-04T12:43:08.661Z,76.60
2023-03-04T12:45:45.095Z,76.20
2023-03-04T12:48:26.832Z,75.90
2023-03-04T12:51:06.497Z,75.20
2023-03-04T12:53:41.884Z,75.10
2023-03-04T12:56:22.508Z,75.40
2023-03-04T12:58:52.306Z,75.40
2023-03-04T13:01:25.722Z,74.80
2023-03-04T13:04:03.094Z,74.60
2023-03-04T13:06:41.387Z,74.70
2023-03-04T13:09:17.472Z,75.70
2023-03-04T13:11:54.821Z,76.40
2023-03-04T13:14:30.471Z,76.10
2023-03-04T13:17:01.654Z,76.30
2023-03-04T13:19:51.272Z,76.70
2023-03-04T13:22:36.431Z,76.90
2023-03-04T13:25:31.348Z,76.60
2023-03-04T13:28:32.702Z,76.70
2023-03-04T13:31:16.581Z,76.60
2023-03-04T13:33:59.582Z,77.20
2023-03-04T13:36:57.224Z,77.30
2023-03-04T13:39:31.405Z,77.10
2023-03-04T13:42:00.418Z,76.30
2023-03-04T13:44:57.496Z,76.20
2023-03-04T13:47:47.067Z,76.30
2023-03-04T13:50:37.876Z,76.10
2023-03-04T13:53:46.444Z,76.10
2023-03-04T13:56:23.368Z,76.50
2023-03-04T13:58:53.294Z,75.90
2023-03-04T14:01:27.108Z,75.80
2023-03-04T14:03:56.583Z,76.10
2023-03-04T14:06:25.525Z,76.50
2023-03-04T14:08:54.658Z,77.00
2023-03-04T14:11:32.376Z,77.30
2023-03-04T14:14:04.606Z,77.90
2023-03-04T14:16:38.367Z,78.20
2023-03-04T14:19:14.225Z,78.50
2023-03-04T14:21:46.200Z,78.20
2023-03-04T14:24:20.040Z,78.00
2023-03-04T14:26:48.699Z,78.00
2023-03-04T14:29:26.916Z,77.90
2023-03-04T14:31:55.421Z,78.30
2023-03-04T14:34:31.981Z,78.60
2023-03-04T14:37:00.147Z,79.00
2023-03-04T14:39:31.102Z,79.00
2023-03-04T14:42:03.247Z,79.10
2023-03-04T14:44:36.139Z,79.40
2023-03-04T14:47:16.935Z,79.40
2023-03-04T14:49:46.642Z,79.10
2023-03-04T14:52:34.352Z,79.30
2023-03-04T14:55:17.258Z,79.30
2023-03-04T14:57:47.045Z,79.70
2023-03-04T15:00:26.082Z,79.70
2023-03-04T15:02:55.739Z,79.80
2023-03-04T15:05:29.094Z,79.40
2023-03-04T15:07:58.953Z,79.50
2023-03-04T15:10:29.263Z,79.90
2023-03-04T15:13:00.874Z,79.80
2023-03-04T15:15:36.298Z,80.80
2023-03-04T15:18:05.806Z,80.30
2023-03-04T15:20:35.090Z,80.10
2023-03-04T15:23:07.092Z,80.20
2023-03-04T15:25:36.386Z,80.10
2023-03-04T15:28:05.160Z,80.40
2023-03-04T15:30:34.871Z,80.40
2023-03-04T15:33:02.781Z,80.20
2023-03-04T15:35:32.771Z,80.30
2023-03-04T15:38:02.372Z,80.30
2023-03-04T15:40:33.718Z,80.80
2023-03-04T15:43:03.592Z,80.50
2023-03-04T15:45:35.875Z,80.40
2023-03-04T15:48:07.768Z,80.50
2023-03-04T15:50:37.593Z,80.50
2023-03-04T15:53:09.427Z,80.70
2023-03-04T15:55:37.826Z,80.80
2023-03-04T15:58:05.866Z,80.70
2023-03-04T16:00:34.558Z,80.90
2023-03-04T16:03:02.379Z,81.50
2023-03-04T16:05:30.641Z,81.70
2023-03-04T16:07:58.701Z,81.60
2023-03-04T16:10:29.687Z,81.50
2023-03-04T16:12:57.733Z,81.50
2023-03-04T16:15:27.569Z,81.60
2023-03-04T16:17:55.933Z,81.90
2023-03-04T16:20:26.707Z,82.10
2023-03-04T16:22:57.267Z,82.30
2023-03-04T16:25:27.181Z,82.40
2023-03-04T16:27:56.437Z,83.30
2023-03-04T16:30:26.323Z,82.60
2023-03-04T16:32:54.537Z,82.60
2023-03-04T16:35:25.258Z,82.50
2023-03-04T16:37:53.510Z,82.80
2023-03-04T16:40:24.681Z,83.00
2023-03-04T16:42:53.869Z,83.10
2023-03-04T16:45:23.901Z,83.20
2023-03-04T16:47:51.996Z,83.20
2023-03-04T16:50:24.905Z,83.50
2023-03-04T16:52:52.804Z,83.80
2023-03-04T16:55:23.251Z,83.90
2023-03-04T16:57:53.128Z,83.90
2023-03-04T17:00:23.053Z,84.10
2023-03-04T17:02:57.949Z,84.50
2023-03-04T17:05:28.136Z,84.60
2023-03-04T17:07:56.025Z,85.50
2023-03-04T17:10:24.053Z,85.10
2023-03-04T17:12:53.331Z,85.30
2023-03-04T17:15:21.573Z,85.50
2023-03-04T17:17:49.404Z,85.60
2023-03-04T17:20:19.087Z,85.80
2023-03-04T17:22:46.988Z,85.90
2023-03-04T17:25:15.382Z,86.10
2023-03-04T17:27:43.876Z,86.10
2023-03-04T17:30:15.917Z,86.50
2023-03-04T17:32:43.771Z,86.70
2023-03-04T17:35:12.264Z,86.60
2023-03-04T17:37:40.572Z,86.80
2023-03-04T17:40:13.894Z,87.10
2023-03-04T17:42:42.165Z,87.20
2023-03-04T17:45:13.219Z,87.10
2023-03-04T17:47:41.994Z,87.20
2023-03-04T17:50:11.250Z,87.40
2023-03-04T17:52:39.117Z,87.40
2023-03-04T17:55:08.177Z,87.60
2023-03-04T17:57:37.522Z,87.70
2023-03-04T18:00:06.238Z,87.80
2023-03-04T18:02:35.410Z,87.80
2023-03-04T18:05:06.592Z,88.00
2023-03-04T18:07:34.765Z,88.20
2023-03-04T18:10:02.799Z,88.20
2023-03-04T18:12:30.702Z,88.40
2023-03-04T18:14:58.952Z,88.80
2023-03-04T18:17:27.470Z,89.00
2023-03-04T18:19:57.557Z,89.20
2023-03-04T18:22:25.459Z,89.30
2023-03-04T18:24:53.662Z,89.40
2023-03-04T18:27:21.675Z,89.40
2023-03-04T18:29:49.868Z,89.70
2023-03-04T18:32:17.853Z,89.50
2023-03-04T18:34:45.821Z,89.40
2023-03-04T18:37:15.150Z,89.50
2023-03-04T18:39:43.044Z,89.60
2023-03-04T18:42:11.141Z,89.60
2023-03-04T18:44:39.164Z,89.40
2023-03-04T18:47:07.587Z,89.50
2023-03-04T18:49:35.595Z,89.60
2023-03-04T18:52:03.447Z,89.60
2023-03-04T18:54:32.634Z,89.80
2023-03-04T18:57:04.783Z,89.40
2023-03-04T18:59:38.729Z,89.60
2023-03-04T19:02:11.685Z,89.80
2023-03-04T19:04:39.579Z,90.00
2023-03-04T19:07:07.393Z,89.60
2023-03-04T19:09:36.597Z,90.00
2023-03-04T19:12:06.471Z,89.90
2023-03-04T19:14:34.366Z,90.20
2023-03-04T19:17:02.252Z,90.50
2023-03-04T19:19:30.220Z,90.70
2023-03-04T19:21:58.327Z,91.40
2023-03-04T19:24:26.394Z,91.20
2023-03-04T19:26:55.593Z,91.60
2023-03-04T19:29:23.425Z,91.80
2023-03-04T19:31:51.425Z,91.70
2023-03-04T19:34:19.254Z,92.10
2023-03-04T19:36:47.098Z,92.60
2023-03-04T19:39:18.321Z,92.20
2023-03-04T19:41:46.201Z,92.50
2023-03-04T19:44:15.396Z,92.50
2023-03-04T19:46:43.281Z,92.60
2023-03-04T19:49:11.346Z,92.80
2023-03-04T19:51:39.331Z,92.80
2023-03-04T19:54:07.708Z,92.80
2023-03-04T19:56:35.543Z,92.50
2023-03-04T19:59:03.662Z,92.90
2023-03-04T20:01:34.848Z,92.70
2023-03-04T20:04:05.109Z,92.70
2023-03-04T20:06:32.990Z,92.30
2023-03-04T20:09:01.965Z,92.20
2023-03-04T20:11:31.122Z,92.50
2023-03-04T20:13:59.480Z,92.80
2023-03-04T20:16:27.473Z,92.70
2023-03-04T20:18:57.894Z,92.50
2023-03-04T20:21:25.957Z,92.80
2023-03-04T20:23:53.859Z,93.20
2023-03-04T20:26:21.687Z,93.40
2023-03-04T20:28:52.892Z,93.70
2023-03-04T20:31:22.617Z,94.00
2023-03-04T20:33:51.645Z,94.40
2023-03-04T20:36:22.491Z,95.40
2023-03-04T20:38:57.990Z,96.70
2023-03-04T20:41:29.604Z,97.10
2023-03-04T20:43:57.563Z,97.90
2023-03-04T20:46:26.813Z,98.40
2023-03-04T20:48:55.158Z,99.30
2023-03-04T20:51:26.120Z,98.80
2023-03-04T20:53:55.273Z,99.50
2023-03-04T20:56:24.147Z,98.90
2023-03-04T20:58:52.395Z,99.20
2023-03-04T21:01:20.450Z,99.90
2023-03-04T21:03:50.239Z,99.90
2023-03-04T21:06:18.087Z,99.90
2023-03-04T21:08:47.260Z,99.90
2023-03-04T21:11:16.674Z,99.90
2023-03-04T21:13:45.271Z,99.90
2023-03-04T21:16:15.158Z,99.90
2023-03-04T21:18:44.643Z,99.90
2023-03-04T21:21:14.104Z,99.90
2023-03-04T21:23:42.512Z,99.90
2023-03-04T21:26:11.703Z,99.90
2023-03-04T21:28:39.561Z,99.90
2023-03-04T21:31:11.305Z,99.90
2023-03-04T21:33:39.253Z,99.90
2023-03-04T21:36:07.636Z,99.90
2023-03-04T21:38:35.816Z,99.90
2023-03-04T21:41:04.997Z,99.90
2023-03-04T21:43:34.240Z,99.90
2023-03-04T21:46:02.114Z,99.90
2023-03-04T21:48:29.950Z,99.90
2023-03-04T21:51:02.571Z,99.90
2023-03-04T21:53:30.401Z,99.90
2023-03-04T21:55:58.588Z,99.90
2023-03-04T21:58:26.483Z,99.90
2023-03-04T22:00:56.986Z,99.90
2023-03-04T22:03:27.068Z,99.90
2023-03-04T22:05:54.888Z,99.90
2023-03-04T22:08:22.755Z,99.90
2023-03-04T22:10:50.671Z,99.90
2023-03-04T22:13:18.527Z,99.90
2023-03-04T22:15:47.661Z,99.90
2023-03-04T22:18:16.853Z,99.90
2023-03-04T22:20:45.187Z,99.90
2023-03-04T22:23:13.617Z,99.90
2023-03-04T22:25:43.047Z,99.90
2023-03-04T22:28:10.884Z,99.90
2023-03-04T22:30:38.706Z,99.90
2023-03-04T22:33:06.638Z,99.90
2023-03-04T22:35:39.741Z,99.90
2023-03-04T22:38:07.678Z,99.90
2023-03-04T22:40:35.523Z,99.90
2023-03-04T22:43:03.680Z,99.90
2023-03-04T22:45:32.859Z,99.90
2023-03-04T22:48:01.084Z,99.90
2023-03-04T22:50:29.369Z,99.90
2023-03-04T22:52:58.746Z,99.90
2023-03-04T22:55:26.676Z,99.90
2023-03-04T22:57:54.537Z,99.90
2023-03-04T23:00:24.214Z,99.90
